Aviation Digital Data Service (ADDS)

Output produced by METARs form (0158 UTC 12 May 2021)
found at http://www.aviationweather.gov/metar/data/
 
METAR text: KEYW 120153Z AUTO 11011KT 10SM CLR 28/23 A3005 RMK AO2 SLP174 T02780233
Conditions at: KEYW (KEY WEST , FL, US) observed 0153 UTC 12 May 2021
Temperature: 27.8°C (82°F)
Dewpoint: 23.3°C (74°F) [RH = 77%]
Pressure (altimeter): 30.05 inches Hg (1017.7 mb)
[Sea-level pressure: 1017.4 mb]
Winds: from the ESE (110 degrees) at 13 MPH (11 knots; 5.7 m/s)
Visibility: 10 or more miles (16+ km)
Ceiling: at least 12,000 feet AGL
Clouds: sky clear below 12,000 feet AGL
Weather: automated observation with no human augmentation;
there may or may not be significant weather present at this time

Forecast for: KEYW (KEY WEST , FL, US)
Text: KEYW 112336Z 1200/1224 11009KT P6SM FEW025
Forecast period: 0000 UTC 12 May 2021 to 0000 UTC 13 May 2021
Forecast type: FROM: standard forecast or significant change
Winds: from the ESE (110 degrees) at 10 MPH (9 knots; 4.6 m/s)
Visibility: 6 or more miles (10+ km)
Ceiling: at least 12,000 feet AGL
Clouds: few clouds at 2500 feet AGL
Weather: no significant weather forecast for this period